sensor_id;sensor_type;location;lat;lon;timestamp;P1;durP1;ratioP1;P2;durP2;ratioP2
6852;SDS011;3465;42.144;24.722;2023-07-09T00:00:50;5.03;;;3.10;;
6852;SDS011;3465;42.144;24.722;2023-07-09T00:03:16;4.40;;;2.95;;
6852;SDS011;3465;42.144;24.722;2023-07-09T00:05:45;6.03;;;3.47;;
6852;SDS011;3465;42.144;24.722;2023-07-09T00:08:29;5.57;;;3.45;;
6852;SDS011;3465;42.144;24.722;2023-07-09T00:10:56;4.63;;;3.25;;
6852;SDS011;3465;42.144;24.722;2023-07-09T00:13:23;4.85;;;3.22;;
6852;SDS011;3465;42.144;24.722;2023-07-09T00:15:50;4.35;;;3.30;;
6852;SDS011;3465;42.144;24.722;2023-07-09T00:18:17;4.95;;;3.25;;
6852;SDS011;3465;42.144;24.722;2023-07-09T00:20:43;7.85;;;3.35;;
6852;SDS011;3465;42.144;24.722;2023-07-09T00:23:10;7.93;;;3.30;;
6852;SDS011;3465;42.144;24.722;2023-07-09T00:25:39;9.23;;;3.13;;
6852;SDS011;3465;42.144;24.722;2023-07-09T00:28:18;5.63;;;3.28;;
6852;SDS011;3465;42.144;24.722;2023-07-09T00:30:45;6.97;;;3.47;;
6852;SDS011;3465;42.144;24.722;2023-07-09T00:33:11;6.10;;;3.55;;
6852;SDS011;3465;42.144;24.722;2023-07-09T00:35:41;4.95;;;3.28;;
6852;SDS011;3465;42.144;24.722;2023-07-09T00:38:14;4.43;;;3.13;;
6852;SDS011;3465;42.144;24.722;2023-07-09T00:40:46;5.10;;;3.22;;
6852;SDS011;3465;42.144;24.722;2023-07-09T00:43:14;3.35;;;3.05;;
6852;SDS011;3465;42.144;24.722;2023-07-09T00:45:41;6.28;;;3.60;;
6852;SDS011;3465;42.144;24.722;2023-07-09T00:48:06;8.05;;;3.50;;
6852;SDS011;3465;42.144;24.722;2023-07-09T00:50:42;6.63;;;3.53;;
6852;SDS011;3465;42.144;24.722;2023-07-09T00:53:15;7.63;;;3.40;;
6852;SDS011;3465;42.144;24.722;2023-07-09T00:55:54;5.68;;;2.95;;
6852;SDS011;3465;42.144;24.722;2023-07-09T00:58:23;7.35;;;3.30;;
6852;SDS011;3465;42.144;24.722;2023-07-09T01:00:54;5.50;;;2.90;;
6852;SDS011;3465;42.144;24.722;2023-07-09T01:03:44;3.80;;;2.88;;
6852;SDS011;3465;42.144;24.722;2023-07-09T01:06:11;4.63;;;3.47;;
6852;SDS011;3465;42.144;24.722;2023-07-09T01:08:38;4.85;;;3.15;;
6852;SDS011;3465;42.144;24.722;2023-07-09T01:11:16;6.72;;;3.20;;
6852;SDS011;3465;42.144;24.722;2023-07-09T01:13:47;6.78;;;3.08;;
6852;SDS011;3465;42.144;24.722;2023-07-09T01:16:13;4.80;;;3.33;;
6852;SDS011;3465;42.144;24.722;2023-07-09T01:18:40;6.47;;;3.00;;
6852;SDS011;3465;42.144;24.722;2023-07-09T01:21:07;5.43;;;3.17;;
6852;SDS011;3465;42.144;24.722;2023-07-09T01:23:40;4.28;;;2.97;;
6852;SDS011;3465;42.144;24.722;2023-07-09T01:26:08;5.55;;;3.17;;
6852;SDS011;3465;42.144;24.722;2023-07-09T01:28:36;4.32;;;3.20;;
6852;SDS011;3465;42.144;24.722;2023-07-09T01:31:02;7.50;;;3.45;;
6852;SDS011;3465;42.144;24.722;2023-07-09T01:33:29;6.65;;;3.65;;
6852;SDS011;3465;42.144;24.722;2023-07-09T01:35:55;5.88;;;3.30;;
6852;SDS011;3465;42.144;24.722;2023-07-09T01:38:25;6.05;;;2.90;;
6852;SDS011;3465;42.144;24.722;2023-07-09T01:40:56;3.97;;;2.90;;
6852;SDS011;3465;42.144;24.722;2023-07-09T01:43:22;6.30;;;3.38;;
6852;SDS011;3465;42.144;24.722;2023-07-09T01:45:50;8.60;;;3.15;;
6852;SDS011;3465;42.144;24.722;2023-07-09T01:48:16;7.70;;;3.10;;
6852;SDS011;3465;42.144;24.722;2023-07-09T01:50:43;4.88;;;3.20;;
6852;SDS011;3465;42.144;24.722;2023-07-09T01:53:12;6.22;;;3.33;;
6852;SDS011;3465;42.144;24.722;2023-07-09T01:55:39;5.93;;;2.88;;
6852;SDS011;3465;42.144;24.722;2023-07-09T01:58:05;3.63;;;2.58;;
6852;SDS011;3465;42.144;24.722;2023-07-09T02:00:31;5.38;;;3.00;;
6852;SDS011;3465;42.144;24.722;2023-07-09T02:02:59;5.43;;;3.20;;
6852;SDS011;3465;42.144;24.722;2023-07-09T02:05:27;6.53;;;3.25;;
6852;SDS011;3465;42.144;24.722;2023-07-09T02:07:55;4.40;;;2.75;;
6852;SDS011;3465;42.144;24.722;2023-07-09T02:10:20;6.20;;;3.35;;
6852;SDS011;3465;42.144;24.722;2023-07-09T02:12:46;6.18;;;3.22;;
6852;SDS011;3465;42.144;24.722;2023-07-09T02:15:12;3.80;;;2.88;;
6852;SDS011;3465;42.144;24.722;2023-07-09T02:17:38;6.25;;;3.05;;
6852;SDS011;3465;42.144;24.722;2023-07-09T02:20:04;8.32;;;2.92;;
6852;SDS011;3465;42.144;24.722;2023-07-09T02:22:32;6.47;;;3.00;;
6852;SDS011;3465;42.144;24.722;2023-07-09T02:24:58;5.72;;;2.80;;
6852;SDS011;3465;42.144;24.722;2023-07-09T02:27:23;3.83;;;2.88;;
6852;SDS011;3465;42.144;24.722;2023-07-09T02:29:49;6.50;;;3.20;;
6852;SDS011;3465;42.144;24.722;2023-07-09T02:32:18;5.65;;;2.70;;
6852;SDS011;3465;42.144;24.722;2023-07-09T02:34:46;8.85;;;2.90;;
6852;SDS011;3465;42.144;24.722;2023-07-09T02:37:19;7.18;;;3.25;;
6852;SDS011;3465;42.144;24.722;2023-07-09T02:39:47;10.75;;;2.92;;
6852;SDS011;3465;42.144;24.722;2023-07-09T02:42:14;5.47;;;2.97;;
6852;SDS011;3465;42.144;24.722;2023-07-09T02:44:41;3.70;;;2.83;;
6852;SDS011;3465;42.144;24.722;2023-07-09T02:47:07;7.53;;;2.90;;
6852;SDS011;3465;42.144;24.722;2023-07-09T02:49:33;5.70;;;3.10;;
6852;SDS011;3465;42.144;24.722;2023-07-09T02:51:59;8.48;;;3.25;;
6852;SDS011;3465;42.144;24.722;2023-07-09T02:54:24;6.57;;;3.05;;
6852;SDS011;3465;42.144;24.722;2023-07-09T02:56:50;4.80;;;3.50;;
6852;SDS011;3465;42.144;24.722;2023-07-09T02:59:15;5.75;;;3.08;;
6852;SDS011;3465;42.144;24.722;2023-07-09T03:01:40;5.53;;;2.97;;
6852;SDS011;3465;42.144;24.722;2023-07-09T03:04:06;7.82;;;2.97;;
6852;SDS011;3465;42.144;24.722;2023-07-09T03:06:33;8.13;;;2.90;;
6852;SDS011;3465;42.144;24.722;2023-07-09T03:09:00;7.05;;;2.80;;
6852;SDS011;3465;42.144;24.722;2023-07-09T03:11:28;4.82;;;2.95;;
6852;SDS011;3465;42.144;24.722;2023-07-09T03:13:58;5.38;;;2.97;;
6852;SDS011;3465;42.144;24.722;2023-07-09T03:16:25;4.35;;;2.97;;
6852;SDS011;3465;42.144;24.722;2023-07-09T03:18:52;7.13;;;3.10;;
6852;SDS011;3465;42.144;24.722;2023-07-09T03:21:18;11.55;;;3.72;;
6852;SDS011;3465;42.144;24.722;2023-07-09T03:23:43;6.50;;;3.40;;
6852;SDS011;3465;42.144;24.722;2023-07-09T03:26:08;5.35;;;3.00;;
6852;SDS011;3465;42.144;24.722;2023-07-09T03:28:34;3.88;;;3.00;;
6852;SDS011;3465;42.144;24.722;2023-07-09T03:30:59;8.43;;;3.50;;
6852;SDS011;3465;42.144;24.722;2023-07-09T03:33:25;7.53;;;3.00;;
6852;SDS011;3465;42.144;24.722;2023-07-09T03:35:51;12.52;;;3.13;;
6852;SDS011;3465;42.144;24.722;2023-07-09T03:38:17;4.13;;;2.80;;
6852;SDS011;3465;42.144;24.722;2023-07-09T03:40:43;5.93;;;2.95;;
6852;SDS011;3465;42.144;24.722;2023-07-09T03:43:08;6.10;;;3.20;;
6852;SDS011;3465;42.144;24.722;2023-07-09T03:45:35;4.50;;;3.10;;
6852;SDS011;3465;42.144;24.722;2023-07-09T03:48:02;7.22;;;2.90;;
6852;SDS011;3465;42.144;24.722;2023-07-09T03:50:28;8.80;;;3.33;;
6852;SDS011;3465;42.144;24.722;2023-07-09T03:52:53;8.00;;;3.10;;
6852;SDS011;3465;42.144;24.722;2023-07-09T03:55:19;7.65;;;3.33;;
6852;SDS011;3465;42.144;24.722;2023-07-09T03:57:44;6.00;;;3.47;;
6852;SDS011;3465;42.144;24.722;2023-07-09T04:00:10;5.63;;;2.78;;
6852;SDS011;3465;42.144;24.722;2023-07-09T04:02:37;6.72;;;2.92;;
6852;SDS011;3465;42.144;24.722;2023-07-09T04:05:03;4.30;;;3.28;;
6852;SDS011;3465;42.144;24.722;2023-07-09T04:07:29;3.72;;;2.90;;
6852;SDS011;3465;42.144;24.722;2023-07-09T04:09:55;9.55;;;3.17;;
6852;SDS011;3465;42.144;24.722;2023-07-09T04:12:20;4.80;;;3.30;;
6852;SDS011;3465;42.144;24.722;2023-07-09T04:14:45;6.35;;;3.08;;
6852;SDS011;3465;42.144;24.722;2023-07-09T04:17:11;4.72;;;3.13;;
6852;SDS011;3465;42.144;24.722;2023-07-09T04:19:36;4.78;;;3.20;;
6852;SDS011;3465;42.144;24.722;2023-07-09T04:22:02;13.15;;;3.50;;
6852;SDS011;3465;42.144;24.722;2023-07-09T04:24:27;5.22;;;3.08;;
6852;SDS011;3465;42.144;24.722;2023-07-09T04:26:53;12.38;;;3.63;;
6852;SDS011;3465;42.144;24.722;2023-07-09T04:29:24;5.28;;;3.00;;
6852;SDS011;3465;42.144;24.722;2023-07-09T04:31:50;6.50;;;3.15;;
6852;SDS011;3465;42.144;24.722;2023-07-09T04:34:15;7.07;;;3.03;;
6852;SDS011;3465;42.144;24.722;2023-07-09T04:36:40;7.25;;;3.67;;
6852;SDS011;3465;42.144;24.722;2023-07-09T04:39:06;4.80;;;3.10;;
6852;SDS011;3465;42.144;24.722;2023-07-09T04:41:32;10.18;;;3.40;;
6852;SDS011;3465;42.144;24.722;2023-07-09T04:43:58;4.93;;;3.05;;
6852;SDS011;3465;42.144;24.722;2023-07-09T04:46:23;6.95;;;3.17;;
6852;SDS011;3465;42.144;24.722;2023-07-09T04:48:49;9.18;;;3.58;;
6852;SDS011;3465;42.144;24.722;2023-07-09T04:51:14;8.65;;;3.25;;
6852;SDS011;3465;42.144;24.722;2023-07-09T04:53:39;7.95;;;3.00;;
6852;SDS011;3465;42.144;24.722;2023-07-09T04:56:06;4.40;;;3.13;;
6852;SDS011;3465;42.144;24.722;2023-07-09T04:58:31;6.43;;;3.22;;
6852;SDS011;3465;42.144;24.722;2023-07-09T05:00:57;5.50;;;2.90;;
6852;SDS011;3465;42.144;24.722;2023-07-09T05:03:23;9.10;;;2.97;;
6852;SDS011;3465;42.144;24.722;2023-07-09T05:05:48;9.50;;;3.15;;
6852;SDS011;3465;42.144;24.722;2023-07-09T05:08:14;9.10;;;3.00;;
6852;SDS011;3465;42.144;24.722;2023-07-09T05:10:43;7.35;;;3.05;;
6852;SDS011;3465;42.144;24.722;2023-07-09T05:13:14;5.85;;;3.17;;
6852;SDS011;3465;42.144;24.722;2023-07-09T05:15:41;6.57;;;3.00;;
6852;SDS011;3465;42.144;24.722;2023-07-09T05:18:11;8.25;;;2.60;;
6852;SDS011;3465;42.144;24.722;2023-07-09T05:20:37;6.72;;;3.22;;
6852;SDS011;3465;42.144;24.722;2023-07-09T05:23:03;3.90;;;2.90;;
6852;SDS011;3465;42.144;24.722;2023-07-09T05:25:28;7.43;;;2.97;;
6852;SDS011;3465;42.144;24.722;2023-07-09T05:27:54;9.15;;;3.00;;
6852;SDS011;3465;42.144;24.722;2023-07-09T05:30:19;9.77;;;3.10;;
6852;SDS011;3465;42.144;24.722;2023-07-09T05:32:45;6.43;;;2.92;;
6852;SDS011;3465;42.144;24.722;2023-07-09T05:35:11;9.32;;;2.88;;
6852;SDS011;3465;42.144;24.722;2023-07-09T05:37:37;5.70;;;2.70;;
6852;SDS011;3465;42.144;24.722;2023-07-09T05:40:03;7.35;;;3.20;;
6852;SDS011;3465;42.144;24.722;2023-07-09T05:42:30;5.95;;;3.00;;
6852;SDS011;3465;42.144;24.722;2023-07-09T05:44:56;4.55;;;2.60;;
6852;SDS011;3465;42.144;24.722;2023-07-09T05:47:22;7.70;;;2.60;;
6852;SDS011;3465;42.144;24.722;2023-07-09T05:49:48;5.53;;;2.88;;
6852;SDS011;3465;42.144;24.722;2023-07-09T05:52:15;9.13;;;2.80;;
6852;SDS011;3465;42.144;24.722;2023-07-09T05:54:42;8.00;;;3.00;;
6852;SDS011;3465;42.144;24.722;2023-07-09T05:57:07;5.95;;;2.90;;
6852;SDS011;3465;42.144;24.722;2023-07-09T05:59:32;6.45;;;2.80;;
6852;SDS011;3465;42.144;24.722;2023-07-09T06:01:58;6.28;;;2.65;;
6852;SDS011;3465;42.144;24.722;2023-07-09T06:04:25;7.30;;;2.75;;
6852;SDS011;3465;42.144;24.722;2023-07-09T06:06:51;9.32;;;2.83;;
6852;SDS011;3465;42.144;24.722;2023-07-09T06:09:16;11.75;;;3.17;;
6852;SDS011;3465;42.144;24.722;2023-07-09T06:11:42;5.30;;;2.83;;
6852;SDS011;3465;42.144;24.722;2023-07-09T06:14:09;13.07;;;2.90;;
6852;SDS011;3465;42.144;24.722;2023-07-09T06:16:35;5.47;;;2.72;;
6852;SDS011;3465;42.144;24.722;2023-07-09T06:19:01;4.43;;;2.78;;
6852;SDS011;3465;42.144;24.722;2023-07-09T06:21:26;6.10;;;2.53;;
6852;SDS011;3465;42.144;24.722;2023-07-09T06:23:51;4.25;;;2.60;;
6852;SDS011;3465;42.144;24.722;2023-07-09T06:26:17;6.18;;;2.63;;
6852;SDS011;3465;42.144;24.722;2023-07-09T06:28:42;4.35;;;3.15;;
6852;SDS011;3465;42.144;24.722;2023-07-09T06:31:07;8.50;;;3.17;;
6852;SDS011;3465;42.144;24.722;2023-07-09T06:33:33;8.45;;;2.78;;
6852;SDS011;3465;42.144;24.722;2023-07-09T06:35:59;4.75;;;2.75;;
6852;SDS011;3465;42.144;24.722;2023-07-09T06:38:26;6.50;;;3.13;;
6852;SDS011;3465;42.144;24.722;2023-07-09T06:40:52;7.90;;;3.40;;
6852;SDS011;3465;42.144;24.722;2023-07-09T06:43:18;9.65;;;3.35;;
6852;SDS011;3465;42.144;24.722;2023-07-09T06:45:57;7.50;;;2.78;;
6852;SDS011;3465;42.144;24.722;2023-07-09T06:48:25;11.30;;;3.63;;
6852;SDS011;3465;42.144;24.722;2023-07-09T06:50:52;6.88;;;2.75;;
6852;SDS011;3465;42.144;24.722;2023-07-09T06:53:19;3.60;;;2.28;;
6852;SDS011;3465;42.144;24.722;2023-07-09T06:55:45;6.63;;;2.95;;
6852;SDS011;3465;42.144;24.722;2023-07-09T06:58:12;5.90;;;2.85;;
6852;SDS011;3465;42.144;24.722;2023-07-09T07:00:38;5.30;;;2.92;;
6852;SDS011;3465;42.144;24.722;2023-07-09T07:03:04;8.77;;;2.72;;
6852;SDS011;3465;42.144;24.722;2023-07-09T07:05:30;7.45;;;2.70;;
6852;SDS011;3465;42.144;24.722;2023-07-09T07:07:56;4.80;;;2.95;;
6852;SDS011;3465;42.144;24.722;2023-07-09T07:10:22;5.85;;;2.45;;
6852;SDS011;3465;42.144;24.722;2023-07-09T07:12:48;7.32;;;3.35;;
6852;SDS011;3465;42.144;24.722;2023-07-09T07:15:14;7.15;;;2.55;;
6852;SDS011;3465;42.144;24.722;2023-07-09T07:17:41;5.85;;;2.70;;
6852;SDS011;3465;42.144;24.722;2023-07-09T07:20:08;7.57;;;2.72;;
6852;SDS011;3465;42.144;24.722;2023-07-09T07:22:34;7.03;;;2.75;;
6852;SDS011;3465;42.144;24.722;2023-07-09T07:25:00;5.80;;;3.30;;
6852;SDS011;3465;42.144;24.722;2023-07-09T07:27:25;5.03;;;2.80;;
6852;SDS011;3465;42.144;24.722;2023-07-09T07:29:51;6.65;;;3.10;;
6852;SDS011;3465;42.144;24.722;2023-07-09T07:32:17;7.82;;;3.03;;
6852;SDS011;3465;42.144;24.722;2023-07-09T07:34:42;10.02;;;2.70;;
6852;SDS011;3465;42.144;24.722;2023-07-09T07:37:08;5.85;;;2.50;;
6852;SDS011;3465;42.144;24.722;2023-07-09T07:39:33;6.68;;;2.70;;
6852;SDS011;3465;42.144;24.722;2023-07-09T07:41:58;4.60;;;2.33;;
6852;SDS011;3465;42.144;24.722;2023-07-09T07:44:24;7.78;;;2.78;;
6852;SDS011;3465;42.144;24.722;2023-07-09T07:46:49;3.50;;;2.53;;
6852;SDS011;3465;42.144;24.722;2023-07-09T07:49:15;5.20;;;2.85;;
6852;SDS011;3465;42.144;24.722;2023-07-09T07:51:40;6.40;;;2.78;;
6852;SDS011;3465;42.144;24.722;2023-07-09T07:54:06;5.10;;;2.30;;
6852;SDS011;3465;42.144;24.722;2023-07-09T07:56:35;3.53;;;2.00;;
6852;SDS011;3465;42.144;24.722;2023-07-09T07:59:01;5.72;;;2.50;;
6852;SDS011;3465;42.144;24.722;2023-07-09T08:01:27;6.78;;;2.75;;
6852;SDS011;3465;42.144;24.722;2023-07-09T08:03:53;7.47;;;2.40;;
6852;SDS011;3465;42.144;24.722;2023-07-09T08:06:19;14.65;;;2.90;;
6852;SDS011;3465;42.144;24.722;2023-07-09T08:08:44;4.88;;;2.45;;
6852;SDS011;3465;42.144;24.722;2023-07-09T08:11:09;5.80;;;2.17;;
6852;SDS011;3465;42.144;24.722;2023-07-09T08:13:35;11.15;;;2.55;;
6852;SDS011;3465;42.144;24.722;2023-07-09T08:16:01;9.60;;;2.58;;
6852;SDS011;3465;42.144;24.722;2023-07-09T08:18:27;4.13;;;2.40;;
6852;SDS011;3465;42.144;24.722;2023-07-09T08:20:52;5.97;;;2.55;;
6852;SDS011;3465;42.144;24.722;2023-07-09T08:23:18;5.53;;;2.85;;
6852;SDS011;3465;42.144;24.722;2023-07-09T08:25:44;17.73;;;3.45;;
6852;SDS011;3465;42.144;24.722;2023-07-09T08:28:16;4.70;;;2.38;;
6852;SDS011;3465;42.144;24.722;2023-07-09T08:30:42;13.40;;;3.20;;
6852;SDS011;3465;42.144;24.722;2023-07-09T08:33:07;4.75;;;2.53;;
6852;SDS011;3465;42.144;24.722;2023-07-09T08:35:32;9.13;;;2.75;;
6852;SDS011;3465;42.144;24.722;2023-07-09T08:37:58;3.80;;;2.20;;
6852;SDS011;3465;42.144;24.722;2023-07-09T08:40:23;3.78;;;2.50;;
6852;SDS011;3465;42.144;24.722;2023-07-09T08:42:49;4.13;;;2.35;;
6852;SDS011;3465;42.144;24.722;2023-07-09T08:48:35;4.63;;;2.83;;
6852;SDS011;3465;42.144;24.722;2023-07-09T08:51:08;2.85;;;2.33;;
6852;SDS011;3465;42.144;24.722;2023-07-09T08:56:07;7.95;;;2.47;;
6852;SDS011;3465;42.144;24.722;2023-07-09T08:58:35;4.00;;;2.33;;
6852;SDS011;3465;42.144;24.722;2023-07-09T09:01:03;6.75;;;2.47;;
6852;SDS011;3465;42.144;24.722;2023-07-09T09:03:35;4.80;;;2.40;;
6852;SDS011;3465;42.144;24.722;2023-07-09T09:06:12;6.07;;;2.30;;
6852;SDS011;3465;42.144;24.722;2023-07-09T09:14:16;5.75;;;2.30;;
6852;SDS011;3465;42.144;24.722;2023-07-09T09:16:43;3.45;;;2.20;;
6852;SDS011;3465;42.144;24.722;2023-07-09T09:19:25;5.90;;;2.40;;
6852;SDS011;3465;42.144;24.722;2023-07-09T09:21:57;3.38;;;2.10;;
6852;SDS011;3465;42.144;24.722;2023-07-09T09:24:33;3.78;;;2.50;;
6852;SDS011;3465;42.144;24.722;2023-07-09T09:27:02;5.55;;;2.50;;
6852;SDS011;3465;42.144;24.722;2023-07-09T09:29:28;3.55;;;2.50;;
6852;SDS011;3465;42.144;24.722;2023-07-09T09:31:54;7.53;;;2.42;;
6852;SDS011;3465;42.144;24.722;2023-07-09T09:34:26;2.95;;;2.22;;
6852;SDS011;3465;42.144;24.722;2023-07-09T09:36:53;5.32;;;2.63;;
6852;SDS011;3465;42.144;24.722;2023-07-09T09:39:20;6.95;;;2.47;;
6852;SDS011;3465;42.144;24.722;2023-07-09T09:41:47;11.00;;;2.40;;
6852;SDS011;3465;42.144;24.722;2023-07-09T09:44:19;4.75;;;2.30;;
6852;SDS011;3465;42.144;24.722;2023-07-09T09:46:52;3.17;;;2.30;;
6852;SDS011;3465;42.144;24.722;2023-07-09T09:49:20;3.47;;;2.10;;
6852;SDS011;3465;42.144;24.722;2023-07-09T09:51:46;3.33;;;2.25;;
6852;SDS011;3465;42.144;24.722;2023-07-09T09:54:16;3.10;;;2.17;;
6852;SDS011;3465;42.144;24.722;2023-07-09T09:56:49;5.05;;;2.45;;
6852;SDS011;3465;42.144;24.722;2023-07-09T09:59:20;2.30;;;2.05;;
6852;SDS011;3465;42.144;24.722;2023-07-09T10:02:02;10.63;;;2.75;;
6852;SDS011;3465;42.144;24.722;2023-07-09T10:04:41;4.65;;;2.50;;
6852;SDS011;3465;42.144;24.722;2023-07-09T10:07:10;5.00;;;2.42;;
6852;SDS011;3465;42.144;24.722;2023-07-09T10:09:50;5.63;;;2.40;;
6852;SDS011;3465;42.144;24.722;2023-07-09T10:15:28;3.50;;;2.25;;
6852;SDS011;3465;42.144;24.722;2023-07-09T10:21:13;3.63;;;2.45;;
6852;SDS011;3465;42.144;24.722;2023-07-09T10:23:44;7.60;;;2.67;;
6852;SDS011;3465;42.144;24.722;2023-07-09T10:26:21;7.90;;;2.50;;
6852;SDS011;3465;42.144;24.722;2023-07-09T10:31:50;2.75;;;1.95;;
6852;SDS011;3465;42.144;24.722;2023-07-09T10:34:34;4.45;;;2.33;;
6852;SDS011;3465;42.144;24.722;2023-07-09T10:40:47;3.58;;;2.13;;
6852;SDS011;3465;42.144;24.722;2023-07-09T10:44:23;5.63;;;2.20;;
6852;SDS011;3465;42.144;24.722;2023-07-09T10:46:32;3.05;;;2.60;;
6852;SDS011;3465;42.144;24.722;2023-07-09T10:49:00;6.55;;;2.88;;
6852;SDS011;3465;42.144;24.722;2023-07-09T10:51:32;5.15;;;2.50;;
6852;SDS011;3465;42.144;24.722;2023-07-09T10:56:55;4.85;;;2.17;;
6852;SDS011;3465;42.144;24.722;2023-07-09T10:59:28;3.97;;;2.50;;
6852;SDS011;3465;42.144;24.722;2023-07-09T11:02:18;3.17;;;2.25;;
6852;SDS011;3465;42.144;24.722;2023-07-09T11:07:33;3.80;;;2.53;;
6852;SDS011;3465;42.144;24.722;2023-07-09T11:10:05;4.03;;;2.30;;
6852;SDS011;3465;42.144;24.722;2023-07-09T11:12:40;4.55;;;2.05;;
6852;SDS011;3465;42.144;24.722;2023-07-09T11:15:11;3.70;;;2.30;;
6852;SDS011;3465;42.144;24.722;2023-07-09T11:17:43;4.80;;;2.30;;
6852;SDS011;3465;42.144;24.722;2023-07-09T11:20:21;4.88;;;2.22;;
6852;SDS011;3465;42.144;24.722;2023-07-09T11:22:54;4.20;;;2.60;;
6852;SDS011;3465;42.144;24.722;2023-07-09T11:25:30;2.72;;;2.33;;
6852;SDS011;3465;42.144;24.722;2023-07-09T11:28:07;3.65;;;2.47;;
6852;SDS011;3465;42.144;24.722;2023-07-09T11:30:44;3.70;;;2.50;;
6852;SDS011;3465;42.144;24.722;2023-07-09T11:33:20;7.88;;;2.65;;
6852;SDS011;3465;42.144;24.722;2023-07-09T11:35:53;4.70;;;2.58;;
6852;SDS011;3465;42.144;24.722;2023-07-09T11:38:38;4.63;;;2.50;;
6852;SDS011;3465;42.144;24.722;2023-07-09T11:44:12;7.85;;;2.65;;
6852;SDS011;3465;42.144;24.722;2023-07-09T11:46:40;6.85;;;2.95;;
6852;SDS011;3465;42.144;24.722;2023-07-09T11:49:31;4.47;;;2.50;;
6852;SDS011;3465;42.144;24.722;2023-07-09T11:52:04;3.47;;;2.50;;
6852;SDS011;3465;42.144;24.722;2023-07-09T11:54:34;4.97;;;2.65;;
6852;SDS011;3465;42.144;24.722;2023-07-09T11:57:01;3.08;;;2.60;;
6852;SDS011;3465;42.144;24.722;2023-07-09T11:59:28;3.97;;;2.53;;
6852;SDS011;3465;42.144;24.722;2023-07-09T12:01:54;11.30;;;3.15;;
6852;SDS011;3465;42.144;24.722;2023-07-09T12:04:21;7.47;;;2.88;;
6852;SDS011;3465;42.144;24.722;2023-07-09T12:06:49;5.13;;;2.20;;
6852;SDS011;3465;42.144;24.722;2023-07-09T12:09:22;3.50;;;2.30;;
6852;SDS011;3465;42.144;24.722;2023-07-09T12:11:48;2.53;;;2.20;;
6852;SDS011;3465;42.144;24.722;2023-07-09T12:14:16;3.05;;;2.30;;
6852;SDS011;3465;42.144;24.722;2023-07-09T12:16:44;4.22;;;2.33;;
6852;SDS011;3465;42.144;24.722;2023-07-09T12:19:12;3.40;;;2.10;;
6852;SDS011;3465;42.144;24.722;2023-07-09T12:21:40;4.50;;;2.28;;
6852;SDS011;3465;42.144;24.722;2023-07-09T12:24:18;2.75;;;2.40;;
6852;SDS011;3465;42.144;24.722;2023-07-09T12:26:49;4.72;;;2.78;;
6852;SDS011;3465;42.144;24.722;2023-07-09T12:29:56;3.30;;;2.35;;
6852;SDS011;3465;42.144;24.722;2023-07-09T12:32:16;7.10;;;2.60;;
6852;SDS011;3465;42.144;24.722;2023-07-09T12:34:52;2.53;;;2.13;;
6852;SDS011;3465;42.144;24.722;2023-07-09T12:37:19;3.83;;;2.60;;
6852;SDS011;3465;42.144;24.722;2023-07-09T12:39:48;4.83;;;2.60;;
6852;SDS011;3465;42.144;24.722;2023-07-09T12:42:29;4.40;;;2.70;;
6852;SDS011;3465;42.144;24.722;2023-07-09T12:44:56;3.17;;;2.30;;
6852;SDS011;3465;42.144;24.722;2023-07-09T12:47:23;6.80;;;2.60;;
6852;SDS011;3465;42.144;24.722;2023-07-09T12:49:50;4.85;;;2.30;;
6852;SDS011;3465;42.144;24.722;2023-07-09T12:52:20;3.80;;;2.47;;
6852;SDS011;3465;42.144;24.722;2023-07-09T12:54:56;3.30;;;2.70;;
6852;SDS011;3465;42.144;24.722;2023-07-09T12:57:22;3.58;;;2.67;;
6852;SDS011;3465;42.144;24.722;2023-07-09T12:59:48;3.17;;;2.53;;
6852;SDS011;3465;42.144;24.722;2023-07-09T13:04:57;3.35;;;2.40;;
6852;SDS011;3465;42.144;24.722;2023-07-09T13:07:38;4.22;;;2.40;;
6852;SDS011;3465;42.144;24.722;2023-07-09T13:10:05;3.35;;;2.58;;
6852;SDS011;3465;42.144;24.722;2023-07-09T13:12:39;2.60;;;2.28;;
6852;SDS011;3465;42.144;24.722;2023-07-09T13:15:05;5.85;;;2.63;;
6852;SDS011;3465;42.144;24.722;2023-07-09T13:17:31;3.22;;;2.67;;
6852;SDS011;3465;42.144;24.722;2023-07-09T13:19:57;7.38;;;2.80;;
6852;SDS011;3465;42.144;24.722;2023-07-09T13:22:22;4.15;;;2.50;;
6852;SDS011;3465;42.144;24.722;2023-07-09T13:24:49;3.38;;;2.35;;
6852;SDS011;3465;42.144;24.722;2023-07-09T13:27:14;4.70;;;2.50;;
6852;SDS011;3465;42.144;24.722;2023-07-09T13:29:41;3.58;;;2.40;;
6852;SDS011;3465;42.144;24.722;2023-07-09T13:32:10;3.03;;;2.33;;
6852;SDS011;3465;42.144;24.722;2023-07-09T13:34:37;3.78;;;2.33;;
6852;SDS011;3465;42.144;24.722;2023-07-09T13:37:04;8.20;;;2.67;;
6852;SDS011;3465;42.144;24.722;2023-07-09T13:39:30;5.03;;;2.30;;
6852;SDS011;3465;42.144;24.722;2023-07-09T13:41:56;4.80;;;2.45;;
6852;SDS011;3465;42.144;24.722;2023-07-09T13:44:23;7.32;;;2.58;;
6852;SDS011;3465;42.144;24.722;2023-07-09T13:46:52;3.47;;;2.58;;
6852;SDS011;3465;42.144;24.722;2023-07-09T13:49:19;4.85;;;2.92;;
6852;SDS011;3465;42.144;24.722;2023-07-09T13:51:47;3.20;;;2.60;;
6852;SDS011;3465;42.144;24.722;2023-07-09T13:54:16;6.80;;;2.85;;
6852;SDS011;3465;42.144;24.722;2023-07-09T13:56:44;3.42;;;2.30;;
6852;SDS011;3465;42.144;24.722;2023-07-09T13:59:20;4.65;;;2.70;;
6852;SDS011;3465;42.144;24.722;2023-07-09T14:01:48;4.30;;;2.53;;
6852;SDS011;3465;42.144;24.722;2023-07-09T14:04:16;3.70;;;2.63;;
6852;SDS011;3465;42.144;24.722;2023-07-09T14:06:43;4.22;;;2.50;;
6852;SDS011;3465;42.144;24.722;2023-07-09T14:09:09;4.43;;;2.55;;
6852;SDS011;3465;42.144;24.722;2023-07-09T14:11:35;4.35;;;2.42;;
6852;SDS011;3465;42.144;24.722;2023-07-09T14:14:29;3.22;;;2.70;;
6852;SDS011;3465;42.144;24.722;2023-07-09T14:16:55;6.40;;;2.85;;
6852;SDS011;3465;42.144;24.722;2023-07-09T14:19:22;5.25;;;2.90;;
6852;SDS011;3465;42.144;24.722;2023-07-09T14:21:49;6.53;;;2.53;;
6852;SDS011;3465;42.144;24.722;2023-07-09T14:24:19;5.03;;;2.63;;
6852;SDS011;3465;42.144;24.722;2023-07-09T14:26:51;4.53;;;2.40;;
6852;SDS011;3465;42.144;24.722;2023-07-09T14:29:17;3.20;;;2.47;;
6852;SDS011;3465;42.144;24.722;2023-07-09T14:31:46;3.95;;;2.50;;
6852;SDS011;3465;42.144;24.722;2023-07-09T14:34:19;7.20;;;2.60;;
6852;SDS011;3465;42.144;24.722;2023-07-09T14:36:53;4.78;;;2.40;;
6852;SDS011;3465;42.144;24.722;2023-07-09T14:39:20;3.58;;;2.60;;
6852;SDS011;3465;42.144;24.722;2023-07-09T14:41:46;4.15;;;2.85;;
6852;SDS011;3465;42.144;24.722;2023-07-09T14:44:25;6.57;;;2.55;;
6852;SDS011;3465;42.144;24.722;2023-07-09T14:46:55;4.68;;;2.60;;
6852;SDS011;3465;42.144;24.722;2023-07-09T14:49:23;4.05;;;2.65;;
6852;SDS011;3465;42.144;24.722;2023-07-09T14:51:49;2.40;;;2.20;;
6852;SDS011;3465;42.144;24.722;2023-07-09T14:54:29;4.45;;;2.40;;
6852;SDS011;3465;42.144;24.722;2023-07-09T14:56:56;6.15;;;2.40;;
6852;SDS011;3465;42.144;24.722;2023-07-09T14:59:23;4.63;;;2.15;;
6852;SDS011;3465;42.144;24.722;2023-07-09T15:01:49;4.05;;;2.70;;
6852;SDS011;3465;42.144;24.722;2023-07-09T15:06:47;11.77;;;2.70;;
6852;SDS011;3465;42.144;24.722;2023-07-09T15:09:14;5.28;;;2.47;;
6852;SDS011;3465;42.144;24.722;2023-07-09T15:11:42;5.05;;;2.50;;
6852;SDS011;3465;42.144;24.722;2023-07-09T15:14:11;2.85;;;2.25;;
6852;SDS011;3465;42.144;24.722;2023-07-09T15:16:36;6.93;;;2.58;;
6852;SDS011;3465;42.144;24.722;2023-07-09T15:19:04;3.08;;;2.60;;
6852;SDS011;3465;42.144;24.722;2023-07-09T15:21:36;5.63;;;2.97;;
6852;SDS011;3465;42.144;24.722;2023-07-09T15:24:02;4.90;;;2.92;;
6852;SDS011;3465;42.144;24.722;2023-07-09T15:26:27;4.70;;;2.50;;
6852;SDS011;3465;42.144;24.722;2023-07-09T15:28:53;4.53;;;2.70;;
6852;SDS011;3465;42.144;24.722;2023-07-09T15:31:18;3.83;;;2.50;;
6852;SDS011;3465;42.144;24.722;2023-07-09T15:33:44;4.00;;;2.55;;
6852;SDS011;3465;42.144;24.722;2023-07-09T15:36:10;5.10;;;2.40;;
6852;SDS011;3465;42.144;24.722;2023-07-09T15:38:37;4.60;;;2.58;;
6852;SDS011;3465;42.144;24.722;2023-07-09T15:41:06;4.85;;;2.75;;
6852;SDS011;3465;42.144;24.722;2023-07-09T15:43:36;3.70;;;2.70;;
6852;SDS011;3465;42.144;24.722;2023-07-09T15:46:01;4.40;;;2.78;;